createdAt,value
2018-09-29T00:00:10.253Z,70.54
2018-09-29T00:00:50.766Z,70.26
2018-09-29T00:01:31.084Z,70.58
2018-09-29T00:02:11.453Z,70.45
2018-09-29T00:02:51.937Z,70.39
2018-09-29T00:03:32.272Z,70.48
2018-09-29T00:04:12.751Z,70.67
2018-09-29T00:04:53.034Z,70.2
2018-09-29T00:05:33.528Z,70.01
2018-09-29T00:06:14.062Z,70.1
2018-09-29T00:06:54.414Z,69.43
2018-09-29T00:07:34.805Z,69.53
2018-09-29T00:08:15.462Z,69.53
2018-09-29T00:08:55.900Z,69.82
2018-09-29T00:09:36.446Z,69.72
2018-09-29T00:10:16.917Z,70.1
2018-09-29T00:10:57.387Z,69.62
2018-09-29T00:11:37.901Z,69.62
2018-09-29T00:12:18.367Z,69.82
2018-09-29T00:12:58.714Z,69.72
2018-09-29T00:13:39.162Z,69.91
2018-09-29T00:14:19.624Z,69.24
2018-09-29T00:15:00.055Z,69.43
2018-09-29T00:15:40.479Z,69.53
2018-09-29T00:16:20.863Z,69.53
2018-09-29T00:17:01.276Z,69.4
2018-09-29T00:17:41.672Z,69.59
2018-09-29T00:18:22.051Z,69.49
2018-09-29T00:19:02.943Z,69.4
2018-09-29T00:19:43.350Z,69.49
2018-09-29T00:20:24.180Z,69.78
2018-09-29T00:21:04.464Z,69.87
2018-09-29T00:21:44.910Z,69.97
2018-09-29T00:22:25.394Z,70.36
2018-09-29T00:23:05.778Z,70.45
2018-09-29T00:23:46.266Z,70.36
2018-09-29T00:24:26.696Z,70.36
2018-09-29T00:25:07.802Z,70.45
2018-09-29T00:25:48.254Z,70.36
2018-09-29T00:26:28.720Z,70.54
2018-09-29T00:27:09.705Z,70.36
2018-09-29T00:27:49.940Z,70.54
2018-09-29T00:28:30.481Z,70.26
2018-09-29T00:29:11.495Z,70.45
2018-09-29T00:29:51.696Z,70.64
2018-09-29T00:30:32.115Z,70.36
2018-09-29T00:31:12.795Z,70.92
2018-09-29T00:31:53.309Z,70.26
2018-09-29T00:32:33.714Z,70.45
2018-09-29T00:33:14.202Z,69.87
2018-09-29T00:33:54.504Z,70.16
2018-09-29T00:34:34.932Z,70.54
2018-09-29T00:35:15.291Z,70.54
2018-09-29T00:35:55.707Z,70.64
2018-09-29T00:36:36.135Z,70.45
2018-09-29T00:37:16.765Z,70.54
2018-09-29T00:37:56.937Z,70.73
2018-09-29T00:38:37.546Z,70.45
2018-09-29T00:39:17.977Z,70.36
2018-09-29T00:39:58.281Z,70.54
2018-09-29T00:40:38.720Z,70.83
2018-09-29T00:41:19.060Z,70.64
2018-09-29T00:41:59.509Z,70.45
2018-09-29T00:42:39.883Z,70.36
2018-09-29T00:43:20.348Z,70.36
2018-09-29T00:44:00.685Z,70.45
2018-09-29T00:44:41.073Z,69.97
2018-09-29T00:45:21.714Z,69.78
2018-09-29T00:46:01.899Z,69.78
2018-09-29T00:46:42.376Z,70.16
2018-09-29T00:47:22.760Z,70.26
2018-09-29T00:48:03.278Z,69.97
2018-09-29T00:48:43.661Z,69.59
2018-09-29T00:49:24.125Z,69.78
2018-09-29T00:51:19.528Z,70.64
2018-09-29T00:52:00.234Z,69.97
2018-09-29T00:52:40.662Z,69.68
2018-09-29T00:53:21.079Z,69.87
2018-09-29T00:54:01.408Z,69.87
2018-09-29T00:54:41.789Z,69.97
2018-09-29T00:55:22.291Z,70.36
2018-09-29T00:56:02.608Z,70.54
2018-09-29T00:56:43.144Z,70.26
2018-09-29T00:57:23.445Z,70.16
2018-09-29T00:58:03.895Z,70.45
2018-09-29T00:58:44.277Z,70.36
2018-09-29T00:59:24.662Z,70.36
2018-09-29T01:00:05.125Z,70.64
2018-09-29T01:00:45.478Z,70.54
2018-09-29T01:01:25.962Z,70.54
2018-09-29T01:02:06.353Z,70.36
2018-09-29T01:02:46.729Z,70.16
2018-09-29T01:03:27.111Z,70.36
2018-09-29T01:04:07.573Z,69.97
2018-09-29T01:04:47.908Z,70.45
2018-09-29T01:05:28.296Z,70.36
2018-09-29T01:06:08.700Z,70.16
2018-09-29T01:06:49.116Z,70.64
2018-09-29T01:07:29.460Z,70.36
2018-09-29T01:08:09.947Z,70.64
2018-09-29T01:08:50.461Z,70.45
2018-09-29T01:09:30.710Z,70.92
2018-09-29T01:10:11.204Z,70.64
2018-09-29T01:10:51.527Z,70.45
2018-09-29T01:11:32.029Z,69.97
2018-09-29T01:12:12.439Z,69.78
2018-09-29T01:12:52.810Z,70.45
2018-09-29T01:13:33.291Z,71.02
2018-09-29T01:14:13.605Z,70.64
2018-09-29T01:14:54.133Z,70.45
2018-09-29T01:15:34.660Z,70.36
2018-09-29T01:16:15.046Z,70.54
2018-09-29T01:16:55.621Z,70.45
2018-09-29T01:17:35.821Z,70.36
2018-09-29T01:18:16.250Z,70.45
2018-09-29T01:18:56.661Z,70.45
2018-09-29T01:19:37.101Z,69.87
2018-09-29T01:20:18.505Z,70.36
2018-09-29T01:20:58.154Z,70.54
2018-09-29T01:21:38.405Z,70.54
2018-09-29T01:22:18.780Z,70.64
2018-09-29T01:22:59.308Z,70.16
2018-09-29T01:23:39.633Z,70.92
2018-09-29T01:24:20.011Z,71.02
2018-09-29T01:25:00.440Z,70.73
2018-09-29T01:25:40.789Z,70.83
2018-09-29T01:26:21.290Z,70.92
2018-09-29T01:27:01.579Z,70.92
2018-09-29T01:27:42.056Z,70.92
2018-09-29T01:28:22.472Z,70.73
2018-09-29T01:29:02.818Z,70.92
2018-09-29T01:29:43.212Z,70.16
2018-09-29T01:30:23.620Z,70.45
2018-09-29T01:31:04.069Z,70.45
2018-09-29T01:31:44.409Z,70.36
2018-09-29T01:32:24.797Z,70.36
2018-09-29T01:33:05.204Z,70.54
2018-09-29T01:33:45.656Z,70.45
2018-09-29T01:34:26.015Z,70.45
2018-09-29T01:35:06.518Z,70.54
2018-09-29T01:35:46.908Z,70.61
2018-09-29T01:36:27.308Z,70.89
2018-09-29T01:37:07.762Z,71.02
2018-09-29T01:37:48.041Z,71.02
2018-09-29T01:38:28.586Z,70.92
2018-09-29T01:39:08.922Z,70.45
2018-09-29T01:39:49.328Z,70.16
2018-09-29T01:40:29.727Z,69.74
2018-09-29T01:41:10.124Z,69.74
2018-09-29T01:41:50.501Z,69.46
2018-09-29T01:43:38.992Z,69.46
2018-09-29T01:44:19.352Z,69.52
2018-09-29T01:44:59.737Z,70.38
2018-09-29T01:45:40.136Z,70.76
2018-09-29T01:46:20.567Z,71.52
2018-09-29T01:47:01.011Z,71.72
2018-09-29T01:47:41.374Z,72.38
2018-09-29T01:48:21.794Z,73.01
2018-09-29T01:49:02.194Z,73.39
2018-09-29T01:49:42.585Z,73.3
2018-09-29T01:51:40.260Z,74.21
2018-09-29T01:52:20.690Z,74.79
2018-09-29T01:53:01.099Z,75.45
2018-09-29T01:53:41.496Z,75.84
2018-09-29T01:55:39.347Z,76.84
2018-09-29T01:56:19.323Z,77.13
2018-09-29T01:56:59.728Z,77.13
2018-09-29T01:57:40.120Z,77.51
2018-09-29T01:58:20.564Z,77.32
2018-09-29T01:59:00.954Z,78.08
2018-09-29T01:59:41.411Z,78.37
2018-09-29T02:00:21.773Z,78.56
2018-09-29T02:01:02.187Z,79.22
2018-09-29T02:01:42.631Z,78.52
2018-09-29T02:02:23.017Z,78.8
2018-09-29T02:03:03.422Z,79.09
2018-09-29T02:03:43.817Z,79.47
2018-09-29T02:05:31.345Z,80.33
2018-09-29T02:06:11.520Z,80.42
2018-09-29T02:06:51.913Z,80.71
2018-09-29T02:07:32.313Z,81.18
2018-09-29T02:08:12.754Z,81.18
2018-09-29T02:08:53.126Z,81.56
2018-09-29T02:09:33.593Z,82.14
2018-09-29T02:10:13.991Z,82.23
2018-09-29T02:10:54.387Z,82.23
2018-09-29T02:11:34.810Z,82.32
2018-09-29T02:13:47.478Z,82.51
2018-09-29T02:14:27.744Z,81.28
2018-09-29T02:15:08.204Z,81.85
2018-09-29T02:15:48.541Z,81.18
2018-09-29T02:16:28.963Z,81.28
2018-09-29T02:17:09.389Z,81.56
2018-09-29T02:19:21.999Z,82.42
2018-09-29T02:20:02.269Z,82
2018-09-29T02:20:42.673Z,82
2018-09-29T02:21:23.112Z,81.9
2018-09-29T02:22:03.515Z,82.19
2018-09-29T02:22:43.919Z,82.67
2018-09-29T02:23:24.350Z,83.04
2018-09-29T02:24:04.713Z,83.42
2018-09-29T02:24:45.175Z,83.62
2018-09-29T02:25:25.535Z,83.52
2018-09-29T02:26:05.970Z,83.42
2018-09-29T02:26:46.351Z,83.71
2018-09-29T02:27:26.743Z,83.62
2018-09-29T02:28:07.154Z,84.09
2018-09-29T02:28:47.651Z,84.28
2018-09-29T02:29:28.013Z,84.95
2018-09-29T02:30:08.422Z,84.95
2018-09-29T02:30:48.847Z,85.61
2018-09-29T02:31:29.252Z,85.95
2018-09-29T02:32:09.666Z,85.99
2018-09-29T02:32:50.051Z,86.28
2018-09-29T02:33:30.466Z,85.8
2018-09-29T02:34:10.866Z,85.71
2018-09-29T02:34:51.304Z,85.61
2018-09-29T02:35:31.664Z,85.47
2018-09-29T02:36:12.062Z,85.57
2018-09-29T02:36:52.470Z,85.47
2018-09-29T02:37:32.871Z,85.76
2018-09-29T02:38:13.299Z,85.66
2018-09-29T02:38:53.719Z,85.71
2018-09-29T02:39:34.100Z,85.86
2018-09-29T02:40:14.518Z,85.47
2018-09-29T02:40:54.916Z,85.86
2018-09-29T02:41:35.306Z,86.8
2018-09-29T02:42:15.747Z,87.66
2018-09-29T02:42:56.165Z,88.18
2018-09-29T02:44:43.829Z,87.23
2018-09-29T02:45:24.049Z,87.42
2018-09-29T02:46:04.489Z,87.04
2018-09-29T02:46:44.871Z,86.47
2018-09-29T02:47:25.303Z,86.94
2018-09-29T02:48:05.669Z,86.28
2018-09-29T02:48:46.117Z,85.33
2018-09-29T02:49:26.532Z,85.71
2018-09-29T02:50:06.976Z,85.71
2018-09-29T02:50:47.408Z,85.9
2018-09-29T02:51:27.836Z,85.04
2018-09-29T02:53:20.557Z,85.14
2018-09-29T02:54:01.664Z,85.14
2018-09-29T02:54:42.041Z,85.33
2018-09-29T02:55:22.470Z,85.33
2018-09-29T02:56:02.884Z,84.72
2018-09-29T02:56:43.275Z,84.91
2018-09-29T02:57:23.651Z,85.19
2018-09-29T02:58:04.103Z,85.28
2018-09-29T02:58:44.451Z,85.28
2018-09-29T02:59:24.853Z,85.38
2018-09-29T03:00:05.293Z,85.19
2018-09-29T03:00:45.646Z,85
2018-09-29T03:02:44.668Z,85.66
2018-09-29T03:03:25.814Z,86.05
2018-09-29T03:04:06.219Z,85.86
2018-09-29T03:04:46.604Z,86.24
2018-09-29T03:05:27.011Z,86.33
2018-09-29T03:07:40.725Z,86.61
2018-09-29T03:08:21.092Z,86.43
2018-09-29T03:09:01.526Z,87.66
2018-09-29T03:09:41.898Z,87.76
2018-09-29T03:10:22.346Z,88.23
2018-09-29T03:11:02.666Z,87.95
2018-09-29T03:11:43.188Z,87.38
2018-09-29T03:12:23.553Z,87.47
2018-09-29T03:13:03.946Z,87.19
2018-09-29T03:13:44.333Z,87.28
2018-09-29T03:14:24.766Z,86.99
2018-09-29T03:15:05.205Z,86.43
2018-09-29T03:17:18.198Z,86.71
2018-09-29T03:17:58.739Z,86.71
2018-09-29T03:18:39.146Z,86.52
2018-09-29T03:19:19.710Z,87.05
2018-09-29T03:19:59.976Z,86.95
2018-09-29T03:20:40.416Z,87.66
2018-09-29T03:21:20.805Z,88.13
2018-09-29T03:22:01.253Z,87.43
2018-09-29T03:22:41.676Z,87.47
2018-09-29T03:23:22.050Z,87.34
2018-09-29T03:24:02.397Z,87.62
2018-09-29T03:26:00.065Z,87.62
2018-09-29T03:26:40.351Z,88.09
2018-09-29T03:27:20.795Z,87.71
2018-09-29T03:28:01.217Z,87.9
2018-09-29T03:28:41.601Z,88.47
2018-09-29T03:29:22.013Z,88.38
2018-09-29T03:30:02.454Z,87.9
2018-09-29T03:30:42.912Z,87.9
2018-09-29T03:31:23.342Z,88.38
2018-09-29T03:32:03.744Z,88.47
2018-09-29T03:32:44.125Z,89.42
2018-09-29T03:33:24.510Z,88.85
2018-09-29T03:35:37.234Z,89.52
2018-09-29T03:36:17.584Z,89.33
2018-09-29T03:36:57.983Z,89.52
2018-09-29T03:37:38.440Z,88.67
2018-09-29T03:38:18.789Z,89.52
2018-09-29T03:40:06.819Z,89.9
2018-09-29T03:40:47.288Z,90.37
2018-09-29T03:41:27.700Z,90.94
2018-09-29T03:42:08.080Z,91.42
2018-09-29T03:42:48.468Z,91.71
2018-09-29T03:43:28.885Z,91.13
2018-09-29T03:44:09.372Z,90.56
2018-09-29T03:44:49.830Z,89.52
2018-09-29T03:45:30.156Z,89.04
2018-09-29T03:46:10.580Z,90.28
2018-09-29T03:46:50.961Z,89.23
2018-09-29T03:47:31.407Z,89.61
2018-09-29T03:48:11.785Z,88.57
2018-09-29T03:48:52.169Z,89.42
2018-09-29T03:49:32.624Z,88.76
2018-09-29T03:50:13.063Z,89.61
2018-09-29T03:50:53.456Z,88
2018-09-29T03:51:33.882Z,89.71
2018-09-29T03:52:14.290Z,89.14
2018-09-29T03:52:54.706Z,89.04
2018-09-29T03:53:35.225Z,89.8
2018-09-29T03:54:15.663Z,90.47
2018-09-29T03:54:56.066Z,90.19
2018-09-29T03:55:36.502Z,90.66
2018-09-29T03:56:16.956Z,90.47
2018-09-29T03:56:57.265Z,91.13
2018-09-29T03:57:37.665Z,90.37
2018-09-29T03:58:18.083Z,89.61
2018-09-29T03:58:58.485Z,89.33
2018-09-29T03:59:38.980Z,89.42
2018-09-29T04:00:19.303Z,89.23
2018-09-29T04:00:59.764Z,88.76
2018-09-29T04:01:40.155Z,89.23
2018-09-29T04:02:20.537Z,89.42
2018-09-29T04:03:01.024Z,88.28
2018-09-29T04:03:41.416Z,88.47
2018-09-29T04:04:21.798Z,89.42
2018-09-29T04:05:02.222Z,88.09
2018-09-29T04:05:42.630Z,88.47
2018-09-29T04:07:41.413Z,88
2018-09-29T04:08:21.887Z,87.81
2018-09-29T04:09:02.329Z,89.04
2018-09-29T04:09:44.396Z,88.28
2018-09-29T04:10:24.777Z,89.33
2018-09-29T04:11:05.220Z,89.38
2018-09-29T04:11:45.642Z,89.67
2018-09-29T04:12:26.044Z,89.47
2018-09-29T04:13:06.460Z,90.05
2018-09-29T04:13:46.886Z,90.33
2018-09-29T04:14:27.296Z,88.9
2018-09-29T04:15:07.756Z,89.67
2018-09-29T04:15:48.167Z,89.19
2018-09-29T04:16:28.519Z,89.28
2018-09-29T04:17:08.880Z,89.62
2018-09-29T04:17:49.295Z,90.28
2018-09-29T04:18:29.696Z,91.04
2018-09-29T04:19:10.119Z,90.95
2018-09-29T04:19:50.518Z,90.85
2018-09-29T04:20:30.920Z,90.76
2018-09-29T04:21:11.319Z,90.38
2018-09-29T04:21:51.709Z,91.04
2018-09-29T04:22:32.113Z,91.71
2018-09-29T04:25:04.625Z,90.76
2018-09-29T04:25:45.001Z,90.76
2018-09-29T04:26:25.421Z,91.14
2018-09-29T04:27:05.859Z,91.14
2018-09-29T05:08:12.261Z,99.99
2018-09-29T05:08:56.355Z,99.99
2018-09-29T05:09:38.027Z,99.99
2018-09-29T05:10:18.382Z,99.99
2018-09-29T05:10:58.794Z,99.99
2018-09-29T05:11:39.183Z,99.99
2018-09-29T05:12:19.601Z,99.99
2018-09-29T05:13:00.016Z,99.99
2018-09-29T05:13:40.434Z,99.99
2018-09-29T05:14:20.844Z,99.99
2018-09-29T05:15:01.246Z,99.99
2018-09-29T05:15:41.663Z,99.99
2018-09-29T05:16:22.033Z,99.99
2018-09-29T05:17:02.444Z,99.99
2018-09-29T05:17:42.890Z,99.99
2018-09-29T05:18:23.230Z,99.99
2018-09-29T05:19:03.629Z,99.99
2018-09-29T05:19:44.072Z,99.99
2018-09-29T05:20:24.454Z,99.99
2018-09-29T05:21:04.867Z,99.99
2018-09-29T05:21:45.279Z,99.99
2018-09-29T05:22:25.665Z,99.99
2018-09-29T05:24:41.298Z,99.99
2018-09-29T05:25:19.909Z,99.99
2018-09-29T05:26:00.288Z,99.99
2018-09-29T05:26:40.703Z,99.99
2018-09-29T05:30:16.184Z,99.99
2018-09-29T05:30:55.200Z,99.99
2018-09-29T05:31:35.538Z,99.87
2018-09-29T05:32:15.914Z,99.2
2018-09-29T05:32:56.331Z,99.99
2018-09-29T05:33:36.748Z,99.44
2018-09-29T05:34:17.184Z,99.63
2018-09-29T05:34:57.596Z,99.35
2018-09-29T05:35:37.990Z,99.44
2018-09-29T05:36:18.382Z,99.35
2018-09-29T05:36:58.787Z,99.26
2018-09-29T05:37:39.186Z,98.97
2018-09-29T05:38:19.611Z,98.97
2018-09-29T05:38:59.988Z,99.16
2018-09-29T05:39:40.421Z,99.44
2018-09-29T05:40:20.905Z,98.87
2018-09-29T05:41:01.228Z,98.21
2018-09-29T05:41:41.653Z,97.64
2018-09-29T05:42:22.091Z,97.07
2018-09-29T05:43:02.488Z,97.55
2018-09-29T05:43:42.855Z,97.55
2018-09-29T05:44:23.322Z,97.07
2018-09-29T05:45:03.703Z,96.26
2018-09-29T05:45:44.067Z,96.55
2018-09-29T05:46:24.503Z,95.98
2018-09-29T05:47:04.890Z,95.7
2018-09-29T05:47:45.366Z,95.51
2018-09-29T05:48:25.740Z,95.03
2018-09-29T05:49:06.131Z,94.18
2018-09-29T05:49:46.530Z,94.18
2018-09-29T05:50:26.900Z,93.99
2018-09-29T05:51:07.309Z,94.08
2018-09-29T05:51:47.684Z,93.6
2018-09-29T05:52:28.109Z,94.42
2018-09-29T05:53:08.581Z,93.56
2018-09-29T05:53:48.948Z,93.18
2018-09-29T05:54:29.358Z,91.38
2018-09-29T05:55:09.732Z,90.52
2018-09-29T05:55:50.119Z,90.33
2018-09-29T05:56:30.517Z,90.28
2018-09-29T05:57:10.927Z,89.09
2018-09-29T05:57:51.357Z,88.47
2018-09-29T05:58:31.768Z,88.95
2018-09-29T05:59:12.185Z,88
2018-09-29T05:59:52.552Z,87.81
2018-09-29T06:00:33.041Z,86.95
2018-09-29T06:01:13.360Z,86.1
2018-09-29T06:01:53.778Z,86.1
2018-09-29T06:03:53.820Z,85.86
2018-09-29T06:04:35.646Z,85.19
2018-09-29T06:05:16.110Z,84.72
2018-09-29T06:05:56.529Z,84.14
2018-09-29T06:06:36.810Z,83.19
2018-09-29T06:07:17.319Z,82.53
2018-09-29T06:07:57.752Z,82.34
2018-09-29T06:08:38.001Z,81.77
2018-09-29T06:09:18.415Z,83
2018-09-29T06:09:58.855Z,83.29
2018-09-29T06:10:39.269Z,83
2018-09-29T06:11:19.628Z,81.96
2018-09-29T06:13:08.353Z,82.28
2018-09-29T06:13:47.765Z,80.66
2018-09-29T06:14:28.190Z,79.62
2018-09-29T06:15:08.679Z,78.77
2018-09-29T06:15:49.000Z,77.34
2018-09-29T06:16:29.422Z,77.05
2018-09-29T06:17:09.862Z,76.9
2018-09-29T06:17:50.284Z,76.52
2018-09-29T06:18:30.687Z,76.14
2018-09-29T06:19:11.099Z,76.33
2018-09-29T06:21:24.617Z,77.56
2018-09-29T06:22:09.689Z,76.81
2018-09-29T06:25:01.848Z,72.75
2018-09-29T06:25:41.503Z,72.56
2018-09-29T06:26:21.924Z,72.37
2018-09-29T06:27:02.323Z,72.75
2018-09-29T06:27:42.740Z,73.03
2018-09-29T06:28:25.751Z,74.37
2018-09-29T06:29:06.181Z,74.18
2018-09-29T06:29:46.592Z,74.27
2018-09-29T06:30:26.992Z,73.89
2018-09-29T06:31:07.411Z,73.55
2018-09-29T06:31:47.893Z,72.88
2018-09-29T06:32:28.225Z,73.17
2018-09-29T06:33:08.666Z,71.93
2018-09-29T06:33:49.101Z,72.78
2018-09-29T06:34:29.506Z,72.16
2018-09-29T06:35:09.917Z,71.87
2018-09-29T06:35:50.327Z,70.72
2018-09-29T06:36:30.722Z,70
2018-09-29T06:37:11.129Z,69.43
2018-09-29T06:37:51.571Z,68.85
2018-09-29T06:38:31.980Z,68.66
2018-09-29T06:40:25.061Z,65.93
2018-09-29T06:41:05.783Z,65.83
2018-09-29T06:41:46.204Z,65.07
2018-09-29T06:42:26.639Z,65.17
2018-09-29T06:43:07.058Z,64.88
2018-09-29T06:43:47.457Z,65.83
2018-09-29T06:44:27.886Z,65.26
2018-09-29T06:45:08.307Z,64.97
2018-09-29T06:45:49.419Z,65.17
2018-09-29T06:46:29.690Z,65.74
2018-09-29T06:47:10.099Z,65.45
2018-09-29T06:49:02.895Z,65.36
2018-09-29T06:49:43.259Z,66.22
2018-09-29T06:50:23.690Z,65.17
2018-09-29T06:51:04.097Z,64.97
2018-09-29T06:51:44.530Z,64.97
2018-09-29T06:55:06.034Z,64.81
2018-09-29T06:55:46.354Z,64.12
2018-09-29T06:56:26.740Z,63.73
2018-09-29T06:57:07.138Z,64.5
2018-09-29T06:58:54.728Z,64.31
2018-09-29T06:59:34.915Z,64.91
2018-09-29T07:00:15.297Z,64.43
2018-09-29T07:00:55.728Z,64.05
2018-09-29T07:01:36.192Z,63.83
2018-09-29T07:02:16.653Z,64.15
2018-09-29T07:02:57.062Z,63.48
2018-09-29T07:03:37.423Z,64.25
2018-09-29T07:04:17.858Z,63.67
2018-09-29T07:04:58.242Z,63.2
2018-09-29T07:05:38.636Z,63.29
2018-09-29T07:06:19.036Z,63
2018-09-29T07:06:59.439Z,62.81
2018-09-29T07:07:39.830Z,62.81
2018-09-29T07:08:20.236Z,62.46
2018-09-29T07:09:00.703Z,62.27
2018-09-29T07:09:41.051Z,62.37
2018-09-29T07:10:21.463Z,62.37
2018-09-29T07:11:01.855Z,61.51
2018-09-29T07:11:42.293Z,61.13
2018-09-29T07:12:22.734Z,62.08
2018-09-29T07:13:03.165Z,62.46
2018-09-29T07:13:43.474Z,62.27
2018-09-29T07:14:23.898Z,62.27
2018-09-29T07:15:04.315Z,62.37
2018-09-29T07:15:44.725Z,62.37
2018-09-29T07:16:25.165Z,62.37
2018-09-29T07:17:05.565Z,62.27
2018-09-29T07:17:45.958Z,62.37
2018-09-29T07:18:26.364Z,62.37
2018-09-29T07:20:18.957Z,62.46
2018-09-29T07:20:59.306Z,61.69
2018-09-29T07:21:39.766Z,61.32
2018-09-29T07:22:20.113Z,62.08
2018-09-29T07:23:00.513Z,61.79
2018-09-29T07:23:40.937Z,61.69
2018-09-29T07:25:38.938Z,60.68
2018-09-29T07:26:19.440Z,60.39
2018-09-29T07:26:59.815Z,60.39
2018-09-29T07:27:40.217Z,61.06
2018-09-29T07:28:20.658Z,60.2
2018-09-29T07:29:01.091Z,60.3
2018-09-29T07:29:41.549Z,60.23
2018-09-29T07:30:21.917Z,60.52
2018-09-29T07:31:02.343Z,60.61
2018-09-29T07:31:42.856Z,60.71
2018-09-29T07:32:23.212Z,60.35
2018-09-29T07:33:03.686Z,59.78
2018-09-29T07:33:44.081Z,58.63
2018-09-29T07:35:59.408Z,56.97
2018-09-29T07:39:05.332Z,54.7
2018-09-29T07:39:45.702Z,54.32
2018-09-29T07:40:26.096Z,54.41
2018-09-29T07:41:06.513Z,54.6
2018-09-29T07:41:46.928Z,53.83
2018-09-29T07:42:27.313Z,54.6
2018-09-29T07:43:07.726Z,54.7
2018-09-29T07:43:48.108Z,55.27
2018-09-29T07:44:28.509Z,55.82
2018-09-29T07:45:08.899Z,55.75
2018-09-29T07:45:49.318Z,55.36
2018-09-29T07:46:29.858Z,54.44
2018-09-29T07:47:10.151Z,53.96
2018-09-29T07:47:50.589Z,53.09
2018-09-29T07:48:30.989Z,53.22
2018-09-29T07:49:11.439Z,52.64
2018-09-29T07:49:51.904Z,52
2018-09-29T07:50:32.331Z,51.23
2018-09-29T07:51:12.785Z,51.04
2018-09-29T07:51:53.139Z,49.98
2018-09-29T07:52:33.531Z,50.27
2018-09-29T07:53:13.932Z,49.98
2018-09-29T07:53:54.344Z,49.69
2018-09-29T07:54:34.747Z,49.79
2018-09-29T07:55:15.177Z,49.88
2018-09-29T07:55:55.693Z,49.41
2018-09-29T07:56:35.941Z,49.31
2018-09-29T07:57:16.339Z,49.41
2018-09-29T07:57:56.744Z,49.21
2018-09-29T07:58:37.179Z,49.02
2018-09-29T07:59:17.564Z,49.31
2018-09-29T07:59:57.977Z,49.21
2018-09-29T08:00:38.377Z,49.31
2018-09-29T08:01:18.761Z,49.31
2018-09-29T08:01:59.207Z,49.79
2018-09-29T08:02:39.576Z,48.76
2018-09-29T08:03:20.004Z,49.24
2018-09-29T08:04:00.428Z,49.15
2018-09-29T08:04:41.532Z,48.4
2018-09-29T08:05:21.898Z,47.56
2018-09-29T08:06:02.291Z,46.89
2018-09-29T08:06:42.736Z,46.69
2018-09-29T08:07:23.111Z,46.59
2018-09-29T08:08:03.765Z,45.64
2018-09-29T08:08:44.171Z,45.06
2018-09-29T08:09:24.627Z,45.06
2018-09-29T08:10:06.658Z,45.73
2018-09-29T08:10:47.043Z,46.31
2018-09-29T08:11:27.478Z,46.59
2018-09-29T08:12:07.877Z,46.41
2018-09-29T08:12:48.303Z,46.5
2018-09-29T08:13:28.720Z,46.41
2018-09-29T08:14:09.149Z,46.5
2018-09-29T08:14:49.621Z,46.31
2018-09-29T08:15:29.958Z,46.5
2018-09-29T08:16:10.353Z,46.69
2018-09-29T08:16:50.776Z,46.41
2018-09-29T08:17:31.196Z,46.12
2018-09-29T08:18:11.638Z,46.67
2018-09-29T08:18:52.011Z,47.13
2018-09-29T08:19:32.404Z,48.11
2018-09-29T08:20:12.804Z,48.49
2018-09-29T08:20:53.214Z,47.82
2018-09-29T08:21:33.620Z,47.08
2018-09-29T08:22:14.067Z,46.79
2018-09-29T08:24:11.782Z,46.14
2018-09-29T08:26:11.858Z,44.62
2018-09-29T08:29:13.958Z,44.24
2018-09-29T08:32:05.727Z,43.32
2018-09-29T08:32:46.165Z,43.03
2018-09-29T08:33:26.546Z,42.93
2018-09-29T08:34:06.909Z,42.74
2018-09-29T08:34:47.376Z,41.97
2018-09-29T08:35:27.783Z,42.55
2018-09-29T08:36:08.152Z,42.46
2018-09-29T08:36:48.584Z,42.26
2018-09-29T08:37:29.027Z,42.96
2018-09-29T08:38:24.287Z,42.47
2018-09-29T08:39:04.694Z,41.89
2018-09-29T08:39:45.131Z,42.26
2018-09-29T08:40:25.577Z,42.47
2018-09-29T08:41:06.023Z,42.74
2018-09-29T08:41:46.431Z,42.86
2018-09-29T08:42:26.840Z,42.38
2018-09-29T08:43:07.244Z,41.72
2018-09-29T08:43:47.660Z,41.34
2018-09-29T08:44:28.131Z,41.34
2018-09-29T08:45:08.478Z,41.17
2018-09-29T08:45:48.892Z,40.59
2018-09-29T08:46:29.324Z,40.11
2018-09-29T08:47:09.889Z,39.82
2018-09-29T08:47:53.780Z,39.72
2018-09-29T08:48:37.037Z,39.62
2018-09-29T08:49:18.308Z,39.64
2018-09-29T08:50:54.783Z,39.47
2018-09-29T08:52:57.647Z,38.87
2018-09-29T08:53:38.344Z,38.39
2018-09-29T08:54:18.871Z,38.78
2018-09-29T08:54:59.264Z,38.78
2018-09-29T08:55:39.680Z,38.79
2018-09-29T08:56:20.139Z,38.89
2018-09-29T08:57:01.657Z,38.51
2018-09-29T08:57:41.282Z,38.41
2018-09-29T08:58:21.730Z,38.49
2018-09-29T08:59:02.198Z,38.51
2018-09-29T08:59:42.876Z,37.93
2018-09-29T09:00:23.148Z,38.02
2018-09-29T09:01:03.594Z,37.73
2018-09-29T09:01:44.073Z,38.41
2018-09-29T09:02:24.492Z,38.21
2018-09-29T09:03:04.930Z,38.39
2018-09-29T09:03:45.392Z,38.41
2018-09-29T09:04:25.848Z,38.31
2018-09-29T09:05:06.293Z,38.12
2018-09-29T09:05:46.955Z,38.12
2018-09-29T09:06:27.465Z,38.31
2018-09-29T09:07:08.285Z,37.93
2018-09-29T09:07:48.826Z,37.93
2018-09-29T09:08:29.244Z,36.48
2018-09-29T09:09:09.652Z,37.15
2018-09-29T09:09:50.050Z,37.83
2018-09-29T09:10:30.962Z,37.63
2018-09-29T09:12:44.410Z,37.35
2018-09-29T09:13:24.782Z,37.45
2018-09-29T09:14:05.135Z,37.81
2018-09-29T09:14:45.526Z,38.37
2018-09-29T09:15:25.924Z,39.24
2018-09-29T09:16:06.432Z,39.04
2018-09-29T09:16:46.756Z,39.34
2018-09-29T09:17:27.218Z,40.19
2018-09-29T09:18:07.595Z,40.2
2018-09-29T09:18:47.975Z,40.11
2018-09-29T09:19:28.420Z,38.95
2018-09-29T09:20:08.964Z,38.95
2018-09-29T09:20:49.221Z,37.89
2018-09-29T09:21:29.610Z,38.08
2018-09-29T09:22:10.024Z,38.95
2018-09-29T09:22:50.500Z,38.26
2018-09-29T09:23:31.065Z,38.24
2018-09-29T09:24:11.529Z,39.95
2018-09-29T09:24:52.051Z,41.18
2018-09-29T09:25:32.501Z,41.66
2018-09-29T09:26:12.937Z,41.18
2018-09-29T09:28:10.340Z,41.55
2018-09-29T09:28:51.667Z,40.95
2018-09-29T09:29:32.012Z,41.33
2018-09-29T09:30:12.424Z,42.2
2018-09-29T09:30:54.000Z,43.26
2018-09-29T09:31:34.194Z,43.57
2018-09-29T09:32:14.779Z,42.43
2018-09-29T09:32:55.168Z,41.28
2018-09-29T09:33:35.573Z,41.2
2018-09-29T09:34:16.064Z,40.24
2018-09-29T09:34:56.492Z,40.24
2018-09-29T09:35:36.883Z,40.41
2018-09-29T09:36:17.340Z,40.41
2018-09-29T09:36:57.743Z,40.7
2018-09-29T09:37:38.115Z,41.39
2018-09-29T09:38:18.515Z,41.13
2018-09-29T09:38:58.943Z,39.59
2018-09-29T09:39:39.380Z,40.28
2018-09-29T09:40:19.766Z,39.41
2018-09-29T09:41:00.245Z,39.12
2018-09-29T09:41:40.727Z,37.68
2018-09-29T09:42:21.130Z,37.74
2018-09-29T09:43:01.472Z,39.26
2018-09-29T09:43:42.388Z,40.03
2018-09-29T09:44:22.464Z,41.35
2018-09-29T09:45:03.027Z,41.62
2018-09-29T09:45:43.415Z,42.08
2018-09-29T09:46:23.891Z,41.5
2018-09-29T09:47:04.298Z,42.54
2018-09-29T09:49:24.594Z,45.11
2018-09-29T09:54:32.041Z,42.41
2018-09-29T09:55:12.259Z,41.38
2018-09-29T09:55:52.725Z,40.22
2018-09-29T09:56:33.146Z,39.18
2018-09-29T09:57:13.754Z,38.68
2018-09-29T09:57:54.089Z,39.06
2018-09-29T09:58:34.607Z,39.06
2018-09-29T09:59:14.932Z,38.09
2018-09-29T10:01:27.819Z,40.35
2018-09-29T10:02:09.024Z,41.02
2018-09-29T10:02:50.763Z,41.29
2018-09-29T10:03:31.774Z,41.29
2018-09-29T10:04:12.181Z,41.39
2018-09-29T10:04:52.581Z,42.54
2018-09-29T10:05:33.046Z,43.4
2018-09-29T10:09:21.683Z,40.16
2018-09-29T10:10:02.090Z,39.97
2018-09-29T10:10:42.977Z,39.87
2018-09-29T10:11:23.684Z,41.41
2018-09-29T10:12:04.020Z,41.22
2018-09-29T10:12:44.647Z,41.02
2018-09-29T10:13:24.953Z,41.12
2018-09-29T10:14:05.349Z,42.35
2018-09-29T10:19:42.827Z,40.58
2018-09-29T10:20:23.509Z,40.08
2018-09-29T10:21:03.933Z,39.22
2018-09-29T10:21:46.569Z,39.89
2018-09-29T10:22:26.644Z,40.78
2018-09-29T10:23:11.165Z,39.64
2018-09-29T10:23:51.769Z,39.64
2018-09-29T10:24:32.280Z,38.59
2018-09-29T10:25:12.546Z,38.87
2018-09-29T10:25:53.260Z,39.16
2018-09-29T10:26:33.647Z,38.39
2018-09-29T11:07:19.060Z,35.6
2018-09-29T11:08:02.479Z,35.1
2018-09-29T11:08:42.873Z,35.97
2018-09-29T11:09:23.786Z,36.91
2018-09-29T11:10:04.102Z,37.57
2018-09-29T11:10:44.485Z,38.62
2018-09-29T11:11:24.869Z,39.39
2018-09-29T11:12:05.432Z,40.35
2018-09-29T11:15:39.650Z,37.04
2018-09-29T11:16:20.283Z,35.99
2018-09-29T11:17:00.660Z,35.6
2018-09-29T11:17:41.268Z,35.7
2018-09-29T11:18:22.362Z,35.99
2018-09-29T11:19:02.791Z,35.41
2018-09-29T11:19:43.184Z,34.64
2018-09-29T11:20:23.620Z,35.02
2018-09-29T11:21:04.028Z,35.7